CDG2274 ZLLL-ZHCC
Flight info
| Callsign | CDG2274 |
|---|---|
| Flight time | 1h 31m |
| Altitude | 24600 |
| Route | UKBIN W214 HO H14 P396 H131 ATGEN W283 SUDGO W4 LIMGI H103 P52 |
| Aircraft | B738/M-SDE1E2E3FGHIJ2J3J4J5M1RWXY/LB1D1 |
Departure
| Time | 2026-05-08 04:08 |
|---|---|
| Airport | Lanzhou Zhongchuan International Airport (ZLLL) |
Arrival
| Time | 2026-05-08 05:40 |
|---|---|
| Airport | Zhengzhou Xinzheng International Airport (ZHCC) |
| Time | Latitude | Longitude | Altitude | Speed | Heading |
|---|---|---|---|---|---|
| 2026-05-08 03:47 | 36.52781 | 103.63236 | 6401 ft | 0 kts | 270° |
| 2026-05-08 04:00 | 36.52781 | 103.63238 | 6402 ft | 2 kts | 270° |
| 2026-05-08 04:00 | 36.52781 | 103.63259 | 6402 ft | 2 kts | 270° |
| 2026-05-08 04:00 | 36.52781 | 103.63279 | 6402 ft | 2 kts | 270° |
| 2026-05-08 04:00 | 36.52779 | 103.63299 | 6402 ft | 2 kts | 289° |
| 2026-05-08 04:01 | 36.52769 | 103.63313 | 6402 ft | 1 kts | 345° |
| 2026-05-08 04:01 | 36.52761 | 103.63314 | 6402 ft | 1 kts | 0° |
| 2026-05-08 04:01 | 36.52753 | 103.63314 | 6402 ft | 1 kts | 1° |
| 2026-05-08 04:01 | 36.52751 | 103.63314 | 6402 ft | 0 kts | 1° |
| 2026-05-08 04:04 | 36.52765 | 103.63315 | 6402 ft | 5 kts | 6° |
| 2026-05-08 04:04 | 36.52834 | 103.63319 | 6402 ft | 12 kts | 354° |
| 2026-05-08 04:04 | 36.52930 | 103.63282 | 6402 ft | 18 kts | 339° |
| 2026-05-08 04:05 | 36.53065 | 103.63261 | 6402 ft | 22 kts | 357° |
| 2026-05-08 04:05 | 36.53187 | 103.63208 | 6402 ft | 17 kts | 277° |
| 2026-05-08 04:05 | 36.53179 | 103.63069 | 6402 ft | 14 kts | 269° |
| 2026-05-08 04:05 | 36.53174 | 103.62923 | 6402 ft | 17 kts | 265° |
| 2026-05-08 04:06 | 36.53168 | 103.62788 | 6402 ft | 13 kts | 267° |
| 2026-05-08 04:06 | 36.53163 | 103.62669 | 6402 ft | 17 kts | 266° |
| 2026-05-08 04:06 | 36.53154 | 103.62520 | 6402 ft | 12 kts | 268° |
| 2026-05-08 04:06 | 36.53148 | 103.62406 | 6402 ft | 9 kts | 249° |
| 2026-05-08 04:07 | 36.53089 | 103.62383 | 6402 ft | 3 kts | 178° |
| 2026-05-08 04:07 | 36.53072 | 103.62384 | 6402 ft | 4 kts | 178° |
| 2026-05-08 04:07 | 36.52879 | 103.62396 | 6402 ft | 57 kts | 178° |
| 2026-05-08 04:07 | 36.52290 | 103.62432 | 6402 ft | 111 kts | 176° |
| 2026-05-08 04:08 | 36.51354 | 103.62494 | 6403 ft | 157 kts | 176° |
| 2026-05-08 04:08 | 36.50183 | 103.62574 | 6747 ft | 174 kts | 177° |
| 2026-05-08 04:08 | 36.48952 | 103.62623 | 7314 ft | 183 kts | 181° |
| 2026-05-08 04:08 | 36.47598 | 103.62625 | 7651 ft | 209 kts | 180° |
| 2026-05-08 04:09 | 36.46075 | 103.62697 | 8019 ft | 227 kts | 176° |
| 2026-05-08 04:09 | 36.44476 | 103.62858 | 8391 ft | 232 kts | 175° |
| 2026-05-08 04:09 | 36.42853 | 103.62996 | 8735 ft | 240 kts | 176° |
| 2026-05-08 04:09 | 36.41116 | 103.63118 | 9084 ft | 260 kts | 176° |
| 2026-05-08 04:10 | 36.39232 | 103.63241 | 9443 ft | 281 kts | 176° |
| 2026-05-08 04:10 | 36.37228 | 103.63372 | 9992 ft | 293 kts | 176° |
| 2026-05-08 04:10 | 36.35175 | 103.63470 | 10773 ft | 297 kts | 179° |
| 2026-05-08 04:10 | 36.33101 | 103.63476 | 11572 ft | 299 kts | 180° |
| 2026-05-08 04:11 | 36.31035 | 103.63775 | 12341 ft | 302 kts | 163° |
| 2026-05-08 04:11 | 36.29173 | 103.64987 | 13085 ft | 305 kts | 141° |
| 2026-05-08 04:11 | 36.27787 | 103.66994 | 13732 ft | 312 kts | 120° |
| 2026-05-08 04:11 | 36.27035 | 103.69538 | 14044 ft | 329 kts | 99° |
| 2026-05-08 04:12 | 36.27010 | 103.72444 | 14314 ft | 347 kts | 83° |
| 2026-05-08 04:12 | 36.27210 | 103.75497 | 14592 ft | 365 kts | 90° |
| 2026-05-08 04:12 | 36.26922 | 103.78666 | 15117 ft | 373 kts | 101° |
| 2026-05-08 04:12 | 36.26380 | 103.81825 | 15784 ft | 377 kts | 100° |
| 2026-05-08 04:13 | 36.25951 | 103.85047 | 16438 ft | 381 kts | 98° |
| 2026-05-08 04:13 | 36.25579 | 103.88314 | 17073 ft | 384 kts | 98° |
| 2026-05-08 04:13 | 36.25168 | 103.91606 | 17660 ft | 389 kts | 98° |
| 2026-05-08 04:13 | 36.24753 | 103.94928 | 18266 ft | 392 kts | 98° |
| 2026-05-08 04:14 | 36.24359 | 103.98293 | 18834 ft | 397 kts | 98° |
| 2026-05-08 04:14 | 36.23949 | 104.01687 | 19385 ft | 401 kts | 98° |
| 2026-05-08 04:14 | 36.23524 | 104.05128 | 19936 ft | 405 kts | 98° |
| 2026-05-08 04:14 | 36.23238 | 104.07412 | 20295 ft | 408 kts | 98° |
| 2026-05-08 04:15 | 36.22801 | 104.10899 | 20808 ft | 412 kts | 98° |
| 2026-05-08 04:15 | 36.22351 | 104.14422 | 21301 ft | 416 kts | 98° |
| 2026-05-08 04:15 | 36.21901 | 104.17971 | 21811 ft | 419 kts | 98° |
| 2026-05-08 04:15 | 36.21444 | 104.21550 | 22392 ft | 420 kts | 98° |
| 2026-05-08 04:16 | 36.20991 | 104.25117 | 23017 ft | 419 kts | 98° |
| 2026-05-08 04:16 | 36.20536 | 104.28686 | 23603 ft | 419 kts | 98° |
| 2026-05-08 04:16 | 36.19952 | 104.32220 | 24176 ft | 420 kts | 105° |
| 2026-05-08 04:16 | 36.19013 | 104.35645 | 24709 ft | 421 kts | 112° |
| 2026-05-08 04:17 | 36.17746 | 104.38948 | 24872 ft | 426 kts | 118° |
| 2026-05-08 04:17 | 36.16286 | 104.42136 | 24905 ft | 426 kts | 121° |
| 2026-05-08 04:17 | 36.14755 | 104.45262 | 24910 ft | 424 kts | 122° |
| 2026-05-08 04:17 | 36.13236 | 104.48373 | 24912 ft | 422 kts | 121° |
| 2026-05-08 04:18 | 36.11726 | 104.51486 | 24913 ft | 422 kts | 121° |
| 2026-05-08 04:18 | 36.10219 | 104.54605 | 24913 ft | 422 kts | 121° |
| 2026-05-08 04:18 | 36.08714 | 104.57727 | 24912 ft | 422 kts | 121° |
| 2026-05-08 04:18 | 36.07208 | 104.60851 | 24912 ft | 422 kts | 121° |
| 2026-05-08 04:19 | 36.05718 | 104.63972 | 24911 ft | 422 kts | 120° |
| 2026-05-08 04:19 | 36.04243 | 104.67115 | 24912 ft | 425 kts | 121° |
| 2026-05-08 04:19 | 36.02721 | 104.70310 | 24913 ft | 436 kts | 121° |
| 2026-05-08 04:19 | 36.01173 | 104.73532 | 24913 ft | 447 kts | 121° |
| 2026-05-08 04:20 | 35.99566 | 104.76861 | 24912 ft | 457 kts | 121° |
| 2026-05-08 04:20 | 35.97919 | 104.80265 | 24911 ft | 466 kts | 121° |
| 2026-05-08 04:20 | 35.96239 | 104.83733 | 24909 ft | 474 kts | 121° |
| 2026-05-08 04:20 | 35.94533 | 104.87250 | 24908 ft | 480 kts | 121° |
| 2026-05-08 04:21 | 35.92809 | 104.90805 | 24907 ft | 485 kts | 121° |
| 2026-05-08 04:21 | 35.91068 | 104.94390 | 24906 ft | 487 kts | 121° |
| 2026-05-08 04:21 | 35.89330 | 104.97977 | 24905 ft | 486 kts | 121° |
| 2026-05-08 04:21 | 35.87591 | 105.01548 | 24904 ft | 486 kts | 121° |
| 2026-05-08 04:22 | 35.85852 | 105.05111 | 24904 ft | 486 kts | 121° |
| 2026-05-08 04:22 | 35.84108 | 105.08681 | 24903 ft | 486 kts | 121° |
| 2026-05-08 04:22 | 35.82361 | 105.12253 | 24902 ft | 486 kts | 121° |
| 2026-05-08 04:22 | 35.80642 | 105.15766 | 24901 ft | 486 kts | 121° |
| 2026-05-08 04:23 | 35.78893 | 105.19332 | 24900 ft | 486 kts | 121° |
| 2026-05-08 04:23 | 35.77149 | 105.22891 | 24900 ft | 486 kts | 121° |
| 2026-05-08 04:23 | 35.75405 | 105.26448 | 24899 ft | 485 kts | 121° |
| 2026-05-08 04:23 | 35.73657 | 105.30008 | 24898 ft | 485 kts | 121° |
| 2026-05-08 04:24 | 35.71914 | 105.33559 | 24897 ft | 485 kts | 121° |
| 2026-05-08 04:24 | 35.70192 | 105.37120 | 24896 ft | 485 kts | 121° |
| 2026-05-08 04:24 | 35.68474 | 105.40685 | 24895 ft | 485 kts | 121° |
| 2026-05-08 04:24 | 35.66744 | 105.44246 | 24895 ft | 485 kts | 121° |
| 2026-05-08 04:25 | 35.65002 | 105.47793 | 24894 ft | 484 kts | 121° |
| 2026-05-08 04:25 | 35.63258 | 105.51328 | 24893 ft | 484 kts | 122° |
| 2026-05-08 04:25 | 35.61510 | 105.54862 | 24892 ft | 484 kts | 122° |
| 2026-05-08 04:25 | 35.59760 | 105.58397 | 24891 ft | 484 kts | 122° |
| 2026-05-08 04:26 | 35.58011 | 105.61924 | 24890 ft | 484 kts | 122° |
| 2026-05-08 04:26 | 35.56262 | 105.65451 | 24889 ft | 484 kts | 122° |
| 2026-05-08 04:26 | 35.54606 | 105.69040 | 24888 ft | 484 kts | 117° |
| 2026-05-08 04:26 | 35.53264 | 105.72837 | 24888 ft | 484 kts | 110° |
| 2026-05-08 04:27 | 35.52266 | 105.76780 | 24887 ft | 484 kts | 104° |
| 2026-05-08 04:27 | 35.51540 | 105.80809 | 24886 ft | 484 kts | 101° |
| 2026-05-08 04:27 | 35.50949 | 105.84891 | 24885 ft | 484 kts | 99° |
| 2026-05-08 04:27 | 35.50380 | 105.88962 | 24884 ft | 484 kts | 99° |
| 2026-05-08 04:28 | 35.49795 | 105.93023 | 24884 ft | 484 kts | 100° |
| 2026-05-08 04:28 | 35.49198 | 105.97092 | 24883 ft | 484 kts | 100° |
| 2026-05-08 04:28 | 35.48596 | 106.01145 | 24883 ft | 484 kts | 100° |
| 2026-05-08 04:28 | 35.47983 | 106.05220 | 24881 ft | 485 kts | 100° |
| 2026-05-08 04:29 | 35.47382 | 106.09223 | 24880 ft | 484 kts | 100° |
| 2026-05-08 04:29 | 35.46771 | 106.13278 | 24880 ft | 484 kts | 100° |
| 2026-05-08 04:29 | 35.46181 | 106.17354 | 24879 ft | 484 kts | 99° |
| 2026-05-08 04:29 | 35.45588 | 106.21425 | 24878 ft | 485 kts | 100° |
| 2026-05-08 04:30 | 35.44986 | 106.25493 | 24877 ft | 485 kts | 100° |
| 2026-05-08 04:30 | 35.44375 | 106.29569 | 24876 ft | 485 kts | 100° |
| 2026-05-08 04:30 | 35.43761 | 106.33634 | 24875 ft | 486 kts | 100° |
| 2026-05-08 04:30 | 35.43147 | 106.37701 | 24875 ft | 485 kts | 100° |
| 2026-05-08 04:31 | 35.42528 | 106.41776 | 24874 ft | 485 kts | 100° |
| 2026-05-08 04:31 | 35.41909 | 106.45843 | 24874 ft | 485 kts | 100° |
| 2026-05-08 04:31 | 35.41286 | 106.49922 | 24873 ft | 486 kts | 100° |
| 2026-05-08 04:31 | 35.40663 | 106.53988 | 24872 ft | 486 kts | 100° |
| 2026-05-08 04:32 | 35.40038 | 106.58074 | 24872 ft | 487 kts | 100° |
| 2026-05-08 04:32 | 35.39440 | 106.62152 | 24871 ft | 486 kts | 100° |
| 2026-05-08 04:32 | 35.38815 | 106.66230 | 24871 ft | 486 kts | 100° |
| 2026-05-08 04:32 | 35.38183 | 106.70302 | 24870 ft | 487 kts | 101° |
| 2026-05-08 04:33 | 35.37544 | 106.74388 | 24869 ft | 488 kts | 101° |
| 2026-05-08 04:33 | 35.36912 | 106.78417 | 24869 ft | 487 kts | 101° |
| 2026-05-08 04:33 | 35.36271 | 106.82496 | 24868 ft | 487 kts | 101° |
| 2026-05-08 04:33 | 35.35630 | 106.86568 | 24868 ft | 487 kts | 101° |
| 2026-05-08 04:34 | 35.34988 | 106.90648 | 24867 ft | 488 kts | 101° |
| 2026-05-08 04:34 | 35.34345 | 106.94733 | 24867 ft | 489 kts | 101° |
| 2026-05-08 04:34 | 35.33699 | 106.98823 | 24866 ft | 488 kts | 101° |
| 2026-05-08 04:34 | 35.33047 | 107.02907 | 24866 ft | 488 kts | 101° |
| 2026-05-08 04:35 | 35.32392 | 107.06992 | 24865 ft | 488 kts | 101° |
| 2026-05-08 04:35 | 35.31736 | 107.11074 | 24865 ft | 488 kts | 101° |
| 2026-05-08 04:35 | 35.31090 | 107.15164 | 24864 ft | 488 kts | 100° |
| 2026-05-08 04:35 | 35.30464 | 107.19261 | 24864 ft | 489 kts | 101° |
| 2026-05-08 04:36 | 35.29815 | 107.23352 | 24864 ft | 489 kts | 101° |
| 2026-05-08 04:36 | 35.29156 | 107.27444 | 24863 ft | 489 kts | 101° |
| 2026-05-08 04:36 | 35.28502 | 107.31472 | 24863 ft | 489 kts | 101° |
| 2026-05-08 04:36 | 35.27836 | 107.35560 | 24863 ft | 489 kts | 101° |
| 2026-05-08 04:37 | 35.27169 | 107.39645 | 24862 ft | 489 kts | 101° |
| 2026-05-08 04:37 | 35.26505 | 107.43713 | 24861 ft | 489 kts | 101° |
| 2026-05-08 04:37 | 35.25835 | 107.47808 | 24861 ft | 490 kts | 101° |
| 2026-05-08 04:37 | 35.25166 | 107.51911 | 24861 ft | 491 kts | 101° |
| 2026-05-08 04:38 | 35.24508 | 107.56011 | 24861 ft | 490 kts | 100° |
| 2026-05-08 04:38 | 35.23861 | 107.60094 | 24861 ft | 490 kts | 101° |
| 2026-05-08 04:38 | 35.23200 | 107.64190 | 24861 ft | 490 kts | 101° |
| 2026-05-08 04:38 | 35.22538 | 107.68268 | 24861 ft | 490 kts | 101° |
| 2026-05-08 04:39 | 35.21788 | 107.72333 | 24859 ft | 491 kts | 106° |
| 2026-05-08 04:39 | 35.20535 | 107.76218 | 24860 ft | 491 kts | 116° |
| 2026-05-08 04:39 | 35.18761 | 107.79777 | 24861 ft | 490 kts | 127° |
| 2026-05-08 04:39 | 35.16589 | 107.82978 | 24860 ft | 489 kts | 133° |
| 2026-05-08 04:40 | 35.14206 | 107.85942 | 24860 ft | 488 kts | 136° |
| 2026-05-08 04:40 | 35.11761 | 107.88828 | 24860 ft | 489 kts | 137° |
| 2026-05-08 04:40 | 35.09370 | 107.91695 | 24860 ft | 489 kts | 136° |
| 2026-05-08 04:40 | 35.06958 | 107.94626 | 24859 ft | 488 kts | 136° |
| 2026-05-08 04:41 | 35.04561 | 107.97557 | 24859 ft | 488 kts | 136° |
| 2026-05-08 04:41 | 35.02170 | 108.00492 | 24859 ft | 488 kts | 136° |
| 2026-05-08 04:41 | 34.99773 | 108.03436 | 24859 ft | 489 kts | 136° |
| 2026-05-08 04:41 | 34.97373 | 108.06387 | 24859 ft | 489 kts | 136° |
| 2026-05-08 04:42 | 34.94991 | 108.09346 | 24859 ft | 489 kts | 135° |
| 2026-05-08 04:42 | 34.92604 | 108.12305 | 24859 ft | 489 kts | 136° |
| 2026-05-08 04:42 | 34.90218 | 108.15253 | 24859 ft | 489 kts | 136° |
| 2026-05-08 04:42 | 34.87825 | 108.18201 | 24859 ft | 489 kts | 136° |
| 2026-05-08 04:43 | 34.85432 | 108.21142 | 24859 ft | 489 kts | 136° |
| 2026-05-08 04:43 | 34.83043 | 108.24077 | 24859 ft | 489 kts | 136° |
| 2026-05-08 04:43 | 34.80658 | 108.27030 | 24859 ft | 489 kts | 136° |
| 2026-05-08 04:43 | 34.78268 | 108.29972 | 24859 ft | 489 kts | 136° |
| 2026-05-08 04:44 | 34.75875 | 108.32902 | 24859 ft | 488 kts | 136° |
| 2026-05-08 04:44 | 34.73479 | 108.35827 | 24859 ft | 488 kts | 136° |
| 2026-05-08 04:44 | 34.71080 | 108.38752 | 24859 ft | 488 kts | 136° |
| 2026-05-08 04:44 | 34.68689 | 108.41665 | 24859 ft | 488 kts | 136° |
| 2026-05-08 04:45 | 34.66287 | 108.44590 | 24859 ft | 488 kts | 136° |
| 2026-05-08 04:45 | 34.63886 | 108.47510 | 24859 ft | 488 kts | 136° |
| 2026-05-08 04:45 | 34.61358 | 108.50163 | 24858 ft | 486 kts | 146° |
| 2026-05-08 04:45 | 34.58489 | 108.52292 | 24861 ft | 483 kts | 155° |
| 2026-05-08 04:46 | 34.55420 | 108.53910 | 24857 ft | 480 kts | 163° |
| 2026-05-08 04:46 | 34.52202 | 108.54946 | 24861 ft | 478 kts | 171° |
| 2026-05-08 04:46 | 34.48928 | 108.55623 | 24859 ft | 477 kts | 173° |
| 2026-05-08 04:46 | 34.45670 | 108.56420 | 24860 ft | 478 kts | 169° |
| 2026-05-08 04:47 | 34.42434 | 108.57344 | 24860 ft | 478 kts | 168° |
| 2026-05-08 04:47 | 34.39206 | 108.58288 | 24860 ft | 478 kts | 169° |
| 2026-05-08 04:47 | 34.35967 | 108.59217 | 24860 ft | 478 kts | 169° |
| 2026-05-08 04:47 | 34.32735 | 108.60138 | 24860 ft | 477 kts | 169° |
| 2026-05-08 04:48 | 34.29498 | 108.61049 | 24860 ft | 477 kts | 169° |
| 2026-05-08 04:48 | 34.26262 | 108.61955 | 24860 ft | 477 kts | 169° |
| 2026-05-08 04:48 | 34.23025 | 108.62858 | 24860 ft | 477 kts | 169° |
| 2026-05-08 04:48 | 34.19827 | 108.63751 | 24860 ft | 479 kts | 169° |
| 2026-05-08 04:49 | 34.16540 | 108.64664 | 24860 ft | 477 kts | 169° |
| 2026-05-08 04:49 | 34.13302 | 108.65564 | 24860 ft | 477 kts | 169° |
| 2026-05-08 04:49 | 34.10082 | 108.66483 | 24856 ft | 478 kts | 167° |
| 2026-05-08 04:49 | 34.06965 | 108.67928 | 24858 ft | 481 kts | 155° |
| 2026-05-08 04:50 | 34.04151 | 108.70052 | 24860 ft | 485 kts | 144° |
| 2026-05-08 04:50 | 34.01638 | 108.72767 | 24861 ft | 487 kts | 136° |
| 2026-05-08 04:50 | 33.99363 | 108.75795 | 24860 ft | 488 kts | 132° |
| 2026-05-08 04:50 | 33.97193 | 108.78933 | 24859 ft | 488 kts | 131° |
| 2026-05-08 04:51 | 33.95021 | 108.82079 | 24858 ft | 488 kts | 132° |
| 2026-05-08 04:51 | 33.92833 | 108.85195 | 24858 ft | 488 kts | 132° |
| 2026-05-08 04:51 | 33.90623 | 108.88311 | 24858 ft | 488 kts | 133° |
| 2026-05-08 04:51 | 33.88411 | 108.91412 | 24858 ft | 488 kts | 133° |
| 2026-05-08 04:52 | 33.86187 | 108.94520 | 24858 ft | 488 kts | 133° |
| 2026-05-08 04:52 | 33.83970 | 108.97612 | 24857 ft | 488 kts | 133° |
| 2026-05-08 04:52 | 33.81757 | 109.00712 | 24857 ft | 489 kts | 133° |
| 2026-05-08 04:52 | 33.79549 | 109.03822 | 24857 ft | 489 kts | 133° |
| 2026-05-08 04:53 | 33.77336 | 109.06920 | 24856 ft | 489 kts | 133° |
| 2026-05-08 04:53 | 33.75118 | 109.10015 | 24856 ft | 489 kts | 133° |
| 2026-05-08 04:53 | 33.72893 | 109.13111 | 24856 ft | 489 kts | 133° |
| 2026-05-08 04:53 | 33.70699 | 109.16161 | 24855 ft | 489 kts | 133° |
| 2026-05-08 04:54 | 33.68477 | 109.19245 | 24855 ft | 489 kts | 133° |
| 2026-05-08 04:54 | 33.66251 | 109.22331 | 24855 ft | 489 kts | 133° |
| 2026-05-08 04:54 | 33.64021 | 109.25422 | 24855 ft | 489 kts | 133° |
| 2026-05-08 04:54 | 33.61797 | 109.28514 | 24855 ft | 489 kts | 133° |
| 2026-05-08 04:55 | 33.59575 | 109.31611 | 24854 ft | 489 kts | 133° |
| 2026-05-08 04:55 | 33.57348 | 109.34694 | 24854 ft | 489 kts | 134° |
| 2026-05-08 04:55 | 33.55117 | 109.37770 | 24854 ft | 489 kts | 134° |
| 2026-05-08 04:55 | 33.52884 | 109.40843 | 24853 ft | 489 kts | 134° |
| 2026-05-08 04:56 | 33.50648 | 109.43918 | 24853 ft | 489 kts | 134° |
| 2026-05-08 04:56 | 33.48409 | 109.46992 | 24853 ft | 489 kts | 134° |
| 2026-05-08 04:56 | 33.46172 | 109.50065 | 24852 ft | 489 kts | 134° |
| 2026-05-08 04:56 | 33.44074 | 109.53281 | 24845 ft | 493 kts | 124° |
| 2026-05-08 04:57 | 33.42616 | 109.57008 | 24850 ft | 497 kts | 110° |
| 2026-05-08 04:57 | 33.41938 | 109.61071 | 24853 ft | 500 kts | 96° |
| 2026-05-08 04:57 | 33.41959 | 109.65242 | 24853 ft | 501 kts | 86° |
| 2026-05-08 04:57 | 33.42388 | 109.69326 | 24851 ft | 502 kts | 82° |
| 2026-05-08 04:58 | 33.42921 | 109.73453 | 24851 ft | 502 kts | 82° |
| 2026-05-08 04:58 | 33.43404 | 109.77585 | 24850 ft | 502 kts | 83° |
| 2026-05-08 04:58 | 33.43841 | 109.81732 | 24850 ft | 501 kts | 83° |
| 2026-05-08 04:58 | 33.44252 | 109.85879 | 24850 ft | 501 kts | 84° |
| 2026-05-08 04:59 | 33.44654 | 109.90027 | 24849 ft | 501 kts | 84° |
| 2026-05-08 04:59 | 33.45051 | 109.94170 | 24849 ft | 501 kts | 84° |
| 2026-05-08 04:59 | 33.45448 | 109.98314 | 24849 ft | 501 kts | 84° |
| 2026-05-08 04:59 | 33.45871 | 110.02471 | 24848 ft | 502 kts | 84° |
| 2026-05-08 05:00 | 33.46278 | 110.06622 | 24848 ft | 502 kts | 84° |
| 2026-05-08 05:00 | 33.46678 | 110.10784 | 24847 ft | 502 kts | 84° |
| 2026-05-08 05:00 | 33.47096 | 110.14945 | 24847 ft | 502 kts | 84° |
| 2026-05-08 05:00 | 33.47496 | 110.19099 | 24847 ft | 502 kts | 84° |
| 2026-05-08 05:01 | 33.47880 | 110.23207 | 24846 ft | 502 kts | 84° |
| 2026-05-08 05:01 | 33.48265 | 110.27365 | 24846 ft | 502 kts | 84° |
| 2026-05-08 05:01 | 33.48645 | 110.31529 | 24846 ft | 502 kts | 84° |
| 2026-05-08 05:01 | 33.49024 | 110.35685 | 24845 ft | 502 kts | 84° |
| 2026-05-08 05:02 | 33.49405 | 110.39857 | 24845 ft | 503 kts | 84° |
| 2026-05-08 05:02 | 33.50126 | 110.43939 | 24839 ft | 503 kts | 71° |
| 2026-05-08 05:02 | 33.51627 | 110.47720 | 24844 ft | 501 kts | 56° |
| 2026-05-08 05:02 | 33.53817 | 110.50939 | 24844 ft | 498 kts | 42° |
| 2026-05-08 05:03 | 33.56544 | 110.53456 | 24846 ft | 494 kts | 30° |
| 2026-05-08 05:03 | 33.59555 | 110.55417 | 24845 ft | 491 kts | 23° |
| 2026-05-08 05:03 | 33.62652 | 110.57134 | 24843 ft | 491 kts | 21° |
| 2026-05-08 05:03 | 33.65731 | 110.58790 | 24843 ft | 491 kts | 21° |
| 2026-05-08 05:04 | 33.68833 | 110.60505 | 24844 ft | 492 kts | 22° |
| 2026-05-08 05:04 | 33.71931 | 110.62251 | 24842 ft | 491 kts | 22° |
| 2026-05-08 05:04 | 33.75023 | 110.64007 | 24842 ft | 491 kts | 23° |
| 2026-05-08 05:04 | 33.78105 | 110.65773 | 24842 ft | 491 kts | 23° |
| 2026-05-08 05:05 | 33.81189 | 110.67543 | 24842 ft | 491 kts | 23° |
| 2026-05-08 05:05 | 33.83266 | 110.68726 | 24841 ft | 491 kts | 22° |
| 2026-05-08 05:05 | 33.86320 | 110.70471 | 24841 ft | 491 kts | 22° |
| 2026-05-08 05:05 | 33.89397 | 110.72237 | 24841 ft | 491 kts | 23° |
| 2026-05-08 05:06 | 33.93527 | 110.74613 | 24840 ft | 491 kts | 23° |
| 2026-05-08 05:06 | 33.95562 | 110.75786 | 24840 ft | 490 kts | 23° |
| 2026-05-08 05:06 | 33.98634 | 110.77558 | 24839 ft | 490 kts | 22° |
| 2026-05-08 05:06 | 34.01723 | 110.79342 | 24840 ft | 489 kts | 22° |
| 2026-05-08 05:07 | 34.04781 | 110.81110 | 24839 ft | 486 kts | 22° |
| 2026-05-08 05:07 | 34.07816 | 110.82865 | 24838 ft | 485 kts | 22° |
| 2026-05-08 05:07 | 34.10865 | 110.84631 | 24838 ft | 485 kts | 22° |
| 2026-05-08 05:07 | 34.13913 | 110.86397 | 24838 ft | 485 kts | 22° |
| 2026-05-08 05:08 | 34.16955 | 110.88148 | 24837 ft | 485 kts | 22° |
| 2026-05-08 05:08 | 34.20003 | 110.89913 | 24837 ft | 484 kts | 22° |
| 2026-05-08 05:08 | 34.23032 | 110.91674 | 24836 ft | 484 kts | 22° |
| 2026-05-08 05:08 | 34.26068 | 110.93442 | 24836 ft | 484 kts | 22° |
| 2026-05-08 05:09 | 34.29098 | 110.95209 | 24836 ft | 483 kts | 22° |
| 2026-05-08 05:09 | 34.32126 | 110.96976 | 24835 ft | 483 kts | 22° |
| 2026-05-08 05:09 | 34.35154 | 110.98744 | 24836 ft | 483 kts | 22° |
| 2026-05-08 05:09 | 34.38081 | 111.00765 | 24828 ft | 487 kts | 33° |
| 2026-05-08 05:10 | 34.40533 | 111.03532 | 24833 ft | 492 kts | 47° |
| 2026-05-08 05:10 | 34.43542 | 111.10951 | 24833 ft | 499 kts | 77° |
| 2026-05-08 05:10 | 34.43872 | 111.15129 | 24834 ft | 501 kts | 91° |
| 2026-05-08 05:11 | 34.43557 | 111.19329 | 24837 ft | 501 kts | 96° |
| 2026-05-08 05:11 | 34.43305 | 111.23533 | 24834 ft | 501 kts | 92° |
| 2026-05-08 05:11 | 34.43267 | 111.27758 | 24834 ft | 501 kts | 89° |
| 2026-05-08 05:11 | 34.43324 | 111.31974 | 24834 ft | 500 kts | 89° |
| 2026-05-08 05:12 | 34.43371 | 111.36183 | 24834 ft | 500 kts | 89° |
| 2026-05-08 05:12 | 34.43408 | 111.40395 | 24726 ft | 500 kts | 89° |
| 2026-05-08 05:12 | 34.43442 | 111.44593 | 24551 ft | 497 kts | 89° |
| 2026-05-08 05:12 | 34.43474 | 111.48751 | 24327 ft | 487 kts | 89° |
| 2026-05-08 05:13 | 34.43505 | 111.52792 | 24076 ft | 473 kts | 89° |
| 2026-05-08 05:13 | 34.43534 | 111.56721 | 23824 ft | 461 kts | 89° |
| 2026-05-08 05:13 | 34.43559 | 111.60555 | 23572 ft | 449 kts | 89° |
| 2026-05-08 05:13 | 34.43581 | 111.64293 | 23320 ft | 438 kts | 89° |
| 2026-05-08 05:14 | 34.43600 | 111.67941 | 23068 ft | 428 kts | 89° |
| 2026-05-08 05:14 | 34.43618 | 111.71510 | 22816 ft | 419 kts | 89° |
| 2026-05-08 05:14 | 34.43634 | 111.75003 | 22564 ft | 410 kts | 89° |
| 2026-05-08 05:14 | 34.43649 | 111.78423 | 22313 ft | 402 kts | 89° |
| 2026-05-08 05:15 | 34.43681 | 111.81776 | 22061 ft | 394 kts | 88° |
| 2026-05-08 05:15 | 34.43723 | 111.85074 | 21809 ft | 388 kts | 88° |
| 2026-05-08 05:15 | 34.43749 | 111.88316 | 21558 ft | 382 kts | 89° |
| 2026-05-08 05:15 | 34.43766 | 111.91517 | 21307 ft | 378 kts | 89° |
| 2026-05-08 05:16 | 34.43778 | 111.94679 | 21056 ft | 373 kts | 89° |
| 2026-05-08 05:16 | 34.43788 | 111.97808 | 20804 ft | 370 kts | 89° |
| 2026-05-08 05:16 | 34.43796 | 112.00925 | 20556 ft | 371 kts | 88° |
| 2026-05-08 05:16 | 34.43803 | 112.04013 | 20309 ft | 372 kts | 88° |
| 2026-05-08 05:17 | 34.43810 | 112.07137 | 20058 ft | 369 kts | 88° |
| 2026-05-08 05:17 | 34.43816 | 112.10235 | 19808 ft | 367 kts | 88° |
| 2026-05-08 05:17 | 34.43822 | 112.13319 | 19557 ft | 365 kts | 88° |
| 2026-05-08 05:17 | 34.43792 | 112.16385 | 19303 ft | 364 kts | 92° |
| 2026-05-08 05:18 | 34.43368 | 112.19398 | 19053 ft | 363 kts | 104° |
| 2026-05-08 05:18 | 34.42502 | 112.22257 | 18939 ft | 362 kts | 113° |
| 2026-05-08 05:18 | 34.41381 | 112.24988 | 18932 ft | 362 kts | 117° |
| 2026-05-08 05:18 | 34.40152 | 112.27657 | 18888 ft | 364 kts | 118° |
| 2026-05-08 05:19 | 34.38915 | 112.30331 | 18738 ft | 362 kts | 118° |
| 2026-05-08 05:19 | 34.37697 | 112.32996 | 18588 ft | 361 kts | 118° |
| 2026-05-08 05:19 | 34.36492 | 112.35652 | 18438 ft | 359 kts | 118° |
| 2026-05-08 05:19 | 34.35293 | 112.38306 | 18287 ft | 358 kts | 117° |
| 2026-05-08 05:20 | 34.34104 | 112.40945 | 18137 ft | 357 kts | 117° |
| 2026-05-08 05:20 | 34.32916 | 112.43588 | 17987 ft | 356 kts | 117° |
| 2026-05-08 05:20 | 34.31731 | 112.46222 | 17836 ft | 356 kts | 117° |
| 2026-05-08 05:20 | 34.30565 | 112.48818 | 17688 ft | 355 kts | 117° |
| 2026-05-08 05:21 | 34.29419 | 112.51423 | 17539 ft | 354 kts | 116° |
| 2026-05-08 05:21 | 34.28269 | 112.54044 | 17371 ft | 353 kts | 117° |
| 2026-05-08 05:21 | 34.27105 | 112.56663 | 17171 ft | 352 kts | 117° |
| 2026-05-08 05:21 | 34.25940 | 112.59265 | 16970 ft | 351 kts | 117° |
| 2026-05-08 05:22 | 34.24778 | 112.61851 | 16769 ft | 349 kts | 117° |
| 2026-05-08 05:22 | 34.23621 | 112.64417 | 16570 ft | 348 kts | 117° |
| 2026-05-08 05:22 | 34.22463 | 112.66981 | 16369 ft | 347 kts | 117° |
| 2026-05-08 05:22 | 34.21309 | 112.69534 | 16169 ft | 345 kts | 117° |
| 2026-05-08 05:23 | 34.20160 | 112.72074 | 15968 ft | 345 kts | 117° |
| 2026-05-08 05:23 | 34.19012 | 112.74611 | 15768 ft | 343 kts | 117° |
| 2026-05-08 05:23 | 34.17867 | 112.77140 | 15565 ft | 342 kts | 117° |
| 2026-05-08 05:23 | 34.16729 | 112.79653 | 15277 ft | 342 kts | 117° |
| 2026-05-08 05:24 | 34.15804 | 112.82278 | 14966 ft | 338 kts | 102° |
| 2026-05-08 05:24 | 34.15638 | 112.85081 | 14665 ft | 333 kts | 82° |
| 2026-05-08 05:24 | 34.16149 | 112.87778 | 14373 ft | 330 kts | 70° |
| 2026-05-08 05:24 | 34.16979 | 112.90320 | 14076 ft | 328 kts | 64° |
| 2026-05-08 05:25 | 34.17952 | 112.92796 | 13776 ft | 325 kts | 62° |
| 2026-05-08 05:25 | 34.18921 | 112.95245 | 13475 ft | 322 kts | 63° |
| 2026-05-08 05:25 | 34.19849 | 112.97675 | 13176 ft | 319 kts | 63° |
| 2026-05-08 05:25 | 34.20761 | 113.00104 | 13054 ft | 310 kts | 64° |
| 2026-05-08 05:26 | 34.21635 | 113.02449 | 13028 ft | 303 kts | 64° |
| 2026-05-08 05:26 | 34.22491 | 113.04752 | 12965 ft | 299 kts | 63° |
| 2026-05-08 05:26 | 34.23343 | 113.07046 | 12716 ft | 301 kts | 63° |
| 2026-05-08 05:26 | 34.24201 | 113.09353 | 12466 ft | 301 kts | 64° |
| 2026-05-08 05:27 | 34.25058 | 113.11670 | 12217 ft | 302 kts | 64° |
| 2026-05-08 05:27 | 34.25923 | 113.13991 | 11965 ft | 302 kts | 64° |
| 2026-05-08 05:27 | 34.26779 | 113.16298 | 11714 ft | 299 kts | 64° |
| 2026-05-08 05:27 | 34.27615 | 113.18552 | 11467 ft | 296 kts | 64° |
| 2026-05-08 05:28 | 34.28462 | 113.20843 | 11213 ft | 293 kts | 64° |
| 2026-05-08 05:28 | 34.29204 | 113.23123 | 10961 ft | 290 kts | 70° |
| 2026-05-08 05:28 | 34.29792 | 113.25408 | 10713 ft | 287 kts | 72° |
| 2026-05-08 05:28 | 34.30373 | 113.27705 | 10461 ft | 283 kts | 71° |
| 2026-05-08 05:29 | 34.30963 | 113.29967 | 10210 ft | 280 kts | 71° |
| 2026-05-08 05:29 | 34.31546 | 113.32174 | 9922 ft | 269 kts | 71° |
| 2026-05-08 05:29 | 34.32016 | 113.34318 | 9609 ft | 261 kts | 80° |
| 2026-05-08 05:29 | 34.32060 | 113.36489 | 9310 ft | 257 kts | 92° |
| 2026-05-08 05:30 | 34.31825 | 113.38619 | 9010 ft | 255 kts | 99° |
| 2026-05-08 05:30 | 34.31461 | 113.40728 | 8718 ft | 258 kts | 101° |
| 2026-05-08 05:30 | 34.31090 | 113.42850 | 8417 ft | 258 kts | 99° |
| 2026-05-08 05:30 | 34.31143 | 113.44986 | 8085 ft | 255 kts | 71° |
| 2026-05-08 05:31 | 34.32138 | 113.46705 | 7785 ft | 252 kts | 37° |
| 2026-05-08 05:31 | 34.33736 | 113.47464 | 7503 ft | 250 kts | 9° |
| 2026-05-08 05:31 | 34.35473 | 113.47479 | 7216 ft | 249 kts | 355° |
| 2026-05-08 05:31 | 34.37197 | 113.47300 | 6918 ft | 248 kts | 355° |
| 2026-05-08 05:32 | 34.38919 | 113.47120 | 6617 ft | 248 kts | 355° |
| 2026-05-08 05:32 | 34.40637 | 113.46939 | 6318 ft | 248 kts | 355° |
| 2026-05-08 05:32 | 34.42357 | 113.46758 | 5993 ft | 249 kts | 355° |
| 2026-05-08 05:32 | 34.44090 | 113.46575 | 5647 ft | 250 kts | 355° |
| 2026-05-08 05:33 | 34.45799 | 113.46395 | 5330 ft | 249 kts | 355° |
| 2026-05-08 05:33 | 34.47526 | 113.46212 | 4981 ft | 249 kts | 355° |
| 2026-05-08 05:33 | 34.49254 | 113.46030 | 4630 ft | 249 kts | 355° |
| 2026-05-08 05:33 | 34.50972 | 113.45848 | 4273 ft | 245 kts | 355° |
| 2026-05-08 05:34 | 34.52630 | 113.45684 | 3990 ft | 232 kts | 357° |
| 2026-05-08 05:34 | 34.54216 | 113.45912 | 3905 ft | 227 kts | 15° |
| 2026-05-08 05:34 | 34.55684 | 113.46552 | 3900 ft | 222 kts | 22° |
| 2026-05-08 05:34 | 34.57095 | 113.47300 | 3899 ft | 221 kts | 24° |
| 2026-05-08 05:35 | 34.58504 | 113.48034 | 3900 ft | 220 kts | 24° |
| 2026-05-08 05:35 | 34.59763 | 113.49080 | 3804 ft | 222 kts | 49° |
| 2026-05-08 05:35 | 34.60410 | 113.50737 | 3595 ft | 217 kts | 77° |
| 2026-05-08 05:35 | 34.60647 | 113.52523 | 3361 ft | 213 kts | 84° |
| 2026-05-08 05:36 | 34.60818 | 113.54301 | 3135 ft | 212 kts | 84° |
| 2026-05-08 05:36 | 34.60987 | 113.56058 | 3000 ft | 210 kts | 84° |
| 2026-05-08 05:36 | 34.61033 | 113.57834 | 2978 ft | 207 kts | 99° |
| 2026-05-08 05:36 | 34.60552 | 113.59441 | 3005 ft | 206 kts | 117° |
| 2026-05-08 05:37 | 34.59914 | 113.60994 | 3011 ft | 205 kts | 117° |
| 2026-05-08 05:37 | 34.59319 | 113.62556 | 3003 ft | 203 kts | 115° |
| 2026-05-08 05:37 | 34.58764 | 113.64117 | 2997 ft | 200 kts | 114° |
| 2026-05-08 05:37 | 34.58228 | 113.65661 | 2997 ft | 198 kts | 114° |
| 2026-05-08 05:38 | 34.57700 | 113.67199 | 3014 ft | 198 kts | 114° |
| 2026-05-08 05:38 | 34.57169 | 113.68754 | 2862 ft | 199 kts | 114° |
| 2026-05-08 05:38 | 34.56652 | 113.70268 | 2604 ft | 191 kts | 114° |
| 2026-05-08 05:38 | 34.56149 | 113.71745 | 2347 ft | 187 kts | 114° |
| 2026-05-08 05:39 | 34.55654 | 113.73199 | 2098 ft | 185 kts | 114° |
| 2026-05-08 05:39 | 34.55172 | 113.74613 | 1871 ft | 175 kts | 114° |
| 2026-05-08 05:39 | 34.54723 | 113.75932 | 1633 ft | 164 kts | 114° |
| 2026-05-08 05:39 | 34.54302 | 113.77166 | 1414 ft | 158 kts | 114° |
| 2026-05-08 05:40 | 34.53887 | 113.78383 | 1210 ft | 154 kts | 114° |
| 2026-05-08 05:40 | 34.53535 | 113.79441 | 596 ft | 48 kts | 285° |
| 2026-05-08 05:40 | 34.53597 | 113.79404 | 555 ft | 4 kts | 236° |
| 2026-05-08 05:40 | 34.53581 | 113.79381 | 555 ft | 12 kts | 207° |
| 2026-05-08 05:41 | 34.53377 | 113.79608 | 544 ft | 73 kts | 111° |
| 2026-05-08 05:41 | 34.53103 | 113.80465 | 592 ft | 138 kts | 113° |
| 2026-05-08 05:41 | 34.52766 | 113.81694 | 932 ft | 167 kts | 110° |
| 2026-05-08 05:41 | 34.52367 | 113.83079 | 1498 ft | 179 kts | 111° |
| 2026-05-08 05:42 | 34.51918 | 113.84578 | 1950 ft | 202 kts | 111° |
| 2026-05-08 05:42 | 34.51372 | 113.86315 | 2162 ft | 236 kts | 112° |
| 2026-05-08 05:42 | 34.50773 | 113.88188 | 2355 ft | 235 kts | 112° |
| 2026-05-08 05:42 | 34.50115 | 113.89925 | 2544 ft | 221 kts | 125° |
| 2026-05-08 05:43 | 34.48989 | 113.91066 | 2824 ft | 209 kts | 155° |
| 2026-05-08 05:43 | 34.47567 | 113.91313 | 3149 ft | 209 kts | 186° |
| 2026-05-08 05:43 | 34.46244 | 113.90620 | 3475 ft | 214 kts | 217° |
| 2026-05-08 05:43 | 34.45349 | 113.89174 | 3819 ft | 226 kts | 243° |
| 2026-05-08 05:44 | 34.44871 | 113.87278 | 3930 ft | 236 kts | 258° |
| 2026-05-08 05:44 | 34.44533 | 113.85324 | 3932 ft | 237 kts | 257° |
| 2026-05-08 05:44 | 34.44185 | 113.83367 | 3919 ft | 237 kts | 257° |
| 2026-05-08 05:44 | 34.43840 | 113.81416 | 3910 ft | 237 kts | 257° |
| 2026-05-08 05:45 | 34.43496 | 113.79467 | 3904 ft | 236 kts | 257° |
| 2026-05-08 05:45 | 34.43196 | 113.77523 | 3889 ft | 235 kts | 264° |
| 2026-05-08 05:45 | 34.43328 | 113.75563 | 3893 ft | 235 kts | 281° |
| 2026-05-08 05:45 | 34.43802 | 113.73692 | 3900 ft | 234 kts | 290° |
| 2026-05-08 05:46 | 34.44461 | 113.71879 | 3901 ft | 236 kts | 294° |
| 2026-05-08 05:46 | 34.45140 | 113.70064 | 3900 ft | 237 kts | 293° |
| 2026-05-08 05:46 | 34.45839 | 113.68255 | 3900 ft | 237 kts | 295° |
| 2026-05-08 05:46 | 34.46540 | 113.66455 | 3900 ft | 237 kts | 295° |
| 2026-05-08 05:47 | 34.47245 | 113.64649 | 3900 ft | 237 kts | 295° |
| 2026-05-08 05:47 | 34.47949 | 113.62842 | 3900 ft | 237 kts | 295° |
| 2026-05-08 05:47 | 34.48653 | 113.61039 | 3900 ft | 236 kts | 295° |
| 2026-05-08 05:47 | 34.49356 | 113.59237 | 3900 ft | 236 kts | 295° |
| 2026-05-08 05:48 | 34.50062 | 113.57432 | 3901 ft | 236 kts | 295° |
| 2026-05-08 05:48 | 34.50765 | 113.55631 | 3901 ft | 236 kts | 295° |
| 2026-05-08 05:48 | 34.51468 | 113.53830 | 3901 ft | 236 kts | 295° |
| 2026-05-08 05:48 | 34.52172 | 113.52031 | 3901 ft | 236 kts | 295° |
| 2026-05-08 05:49 | 34.52917 | 113.50254 | 3890 ft | 237 kts | 302° |
| 2026-05-08 05:49 | 34.54125 | 113.48898 | 3746 ft | 240 kts | 331° |
| 2026-05-08 05:49 | 34.55710 | 113.48480 | 3579 ft | 232 kts | 2° |
| 2026-05-08 05:49 | 34.57220 | 113.48961 | 3439 ft | 224 kts | 21° |
| 2026-05-08 05:50 | 34.58640 | 113.49693 | 3275 ft | 219 kts | 24° |
| 2026-05-08 05:50 | 34.59972 | 113.50587 | 3106 ft | 215 kts | 39° |
| 2026-05-08 05:50 | 34.60753 | 113.52062 | 3016 ft | 210 kts | 73° |
| 2026-05-08 05:50 | 34.61025 | 113.53789 | 3042 ft | 209 kts | 83° |
| 2026-05-08 05:51 | 34.61203 | 113.55545 | 3030 ft | 211 kts | 84° |
| 2026-05-08 05:51 | 34.61193 | 113.57320 | 2991 ft | 211 kts | 102° |
| 2026-05-08 05:51 | 34.60671 | 113.58973 | 3018 ft | 209 kts | 116° |
| 2026-05-08 05:51 | 34.60038 | 113.60564 | 3014 ft | 210 kts | 116° |
| 2026-05-08 05:52 | 34.59441 | 113.62177 | 3007 ft | 209 kts | 115° |
| 2026-05-08 05:52 | 34.58874 | 113.63785 | 3012 ft | 205 kts | 114° |
| 2026-05-08 05:52 | 34.58326 | 113.65368 | 3002 ft | 202 kts | 114° |
| 2026-05-08 05:52 | 34.57792 | 113.66926 | 2995 ft | 198 kts | 114° |
| 2026-05-08 05:53 | 34.57264 | 113.68473 | 2869 ft | 201 kts | 114° |
| 2026-05-08 05:53 | 34.56730 | 113.70039 | 2632 ft | 198 kts | 114° |
| 2026-05-08 05:53 | 34.56213 | 113.71556 | 2374 ft | 192 kts | 114° |
| 2026-05-08 05:53 | 34.55879 | 113.72537 | 2208 ft | 189 kts | 114° |
| 2026-05-08 05:54 | 34.55390 | 113.73973 | 1972 ft | 178 kts | 114° |
| 2026-05-08 05:54 | 34.54779 | 113.75768 | 1676 ft | 166 kts | 114° |
| 2026-05-08 05:54 | 34.54348 | 113.77032 | 1451 ft | 163 kts | 114° |
| 2026-05-08 05:54 | 34.53918 | 113.78292 | 1231 ft | 160 kts | 114° |
| 2026-05-08 05:55 | 34.53634 | 113.79128 | 1079 ft | 157 kts | 114° |
| 2026-05-08 05:55 | 34.53224 | 113.80332 | 832 ft | 151 kts | 114° |
| 2026-05-08 05:55 | 34.52849 | 113.81459 | 674 ft | 140 kts | 113° |
| 2026-05-08 05:55 | 34.52489 | 113.82490 | 518 ft | 129 kts | 114° |
| 2026-05-08 05:56 | 34.52187 | 113.83364 | 503 ft | 86 kts | 111° |
| 2026-05-08 05:56 | 34.52022 | 113.83847 | 503 ft | 52 kts | 109° |
| 2026-05-08 05:56 | 34.51887 | 113.84221 | 503 ft | 37 kts | 112° |
| 2026-05-08 05:56 | 34.51825 | 113.84443 | 503 ft | 23 kts | 112° |
| 2026-05-08 05:57 | 34.51776 | 113.84624 | 503 ft | 22 kts | 97° |
| 2026-05-08 05:57 | 34.51778 | 113.84774 | 503 ft | 14 kts | 85° |
| 2026-05-08 05:57 | 34.51809 | 113.84894 | 503 ft | 11 kts | 27° |
| 2026-05-08 05:57 | 34.51896 | 113.84955 | 503 ft | 17 kts | 26° |
| 2026-05-08 05:58 | 34.52005 | 113.85015 | 503 ft | 19 kts | 24° |
| 2026-05-08 05:58 | 34.52098 | 113.85032 | 503 ft | 10 kts | 309° |
| 2026-05-08 05:58 | 34.52116 | 113.84985 | 503 ft | 3 kts | 293° |
| 2026-05-08 05:58 | 34.52119 | 113.84976 | 503 ft | 0 kts | 291° |